Terminal Aerodrome Forecast
Issued by NWS Portland, OR

Home | Current Version | Previous Version | Text Only | Print | Product List | Glossary On
Versions: 1 2 3 4 5 6 7 8 9 10 11 12 13 14 15
000
FTUS46 KPQR 221722
TAFSLE
TAF
KSLE 221722Z 2218/2318 01012KT P6SM SKC
     FM222100 01015G25KT P6SM SKC
     FM230500 36008KT P6SM SKC
     FM230900 01004KT P6SM SKC=

USA.gov is the U.S. government's official web portal to all federal, state and local government web resources and services.